Svanen — LKXK — position and weather

sailwx.info

Track history (hours):
 
Tides and Currents Weather Stations Pressure Air Temp Water Temp Dewpoint Dewpoint Depression Visibility Wind Speed Wind Dir Waves Ship Positions

Svanen (Norway)

Ship's website: http://www.svanen.no/english/english.php1

Last reported at 2015-Sep-20 10:08 UTC. Time now 2016-Feb-07 10:39 UTC.
Position N 59°40' E 010°37'.
Warning: this ship's position is months out of date.

Length 27 m; draft 2.8 m.

Type: Sailing vessel. MMSI: 259173000.

Date/timePositionNaut miles runAvg speedWind from/ knotsBaromVisibWave heightAir tempDewpointWater temp
2015-Sep-20 10:08N 59°40' E 010°37'4 6.9
2015-Sep-20 09:33N 59°36' E 010°38'6 6.4
2015-Sep-20 08:34N 59°30' E 010°33'5 5.1
2015-Sep-20 07:34N 59°26' E 010°29'0 0.0
2015-Sep-20 06:31N 59°26' E 010°29'0 0.0
2015-Sep-20 05:32N 59°26' E 010°29'0 0.0
2015-Sep-20 04:31N 59°26' E 010°29'0 0.0
2015-Sep-20 03:32N 59°26' E 010°29'0 0.0
2015-Sep-20 02:32N 59°26' E 010°29'0 0.0
2015-Sep-20 01:32N 59°26' E 010°29'0 0.0
2015-Sep-20 00:32N 59°26' E 010°29'0 0.0
2015-Sep-19 23:29N 59°26' E 010°29'0 0.0
2015-Sep-19 22:32N 59°26' E 010°29'0 0.0
2015-Sep-19 21:32N 59°26' E 010°29'0 0.0
2015-Sep-19 20:32N 59°26' E 010°29'0 0.0
2015-Sep-19 19:32N 59°26' E 010°29'0 0.0
2015-Sep-19 18:32N 59°26' E 010°29'0 0.0
2015-Sep-19 17:32N 59°26' E 010°29'0 0.0
2015-Sep-19 16:32N 59°26' E 010°29'0 0.0
2015-Sep-19 15:34N 59°26' E 010°29'2 2.3
2015-Sep-19 14:34N 59°28' E 010°31'3 2.6
2015-Sep-19 13:34N 59°28' E 010°26'3 3.5
2015-Sep-19 12:34N 59°30' E 010°32'4 4.4
2015-Sep-19 11:33N 59°34' E 010°37'3 3.2
2015-Sep-19 10:33N 59°37' E 010°37'4 0.2
2015-Sep-18 17:34N 59°41' E 010°36'13 5.7
2015-Sep-18 15:20N 59°53' E 010°40'  
Track history (hours):
 
Tides and Currents Weather Stations Pressure Air Temp Water Temp Dewpoint Dewpoint Depression Visibility Wind Speed Wind Dir Waves Ship Positions

Svanen (Norway)

Ship's website: http://www.svanen.no/english/english.php1

Last reported at 2015-Sep-20 10:08 UTC. Time now 2016-Feb-07 10:39 UTC.
Position N 59°40' E 010°37'.
Warning: this ship's position is months out of date.

Length 27 m; draft 2.8 m.

Type: Sailing vessel. MMSI: 259173000.

Date/timePositionNaut miles runAvg speedWind from/ knotsBaromVisibWave heightAir tempDewpointWater temp
2015-Sep-20 10:08N 59°40' E 010°37'4 6.9
2015-Sep-20 09:33N 59°36' E 010°38'6 6.4
2015-Sep-20 08:34N 59°30' E 010°33'5 5.1
2015-Sep-20 07:34N 59°26' E 010°29'0 0.0
2015-Sep-20 06:31N 59°26' E 010°29'0 0.0
2015-Sep-20 05:32N 59°26' E 010°29'0 0.0
2015-Sep-20 04:31N 59°26' E 010°29'0 0.0
2015-Sep-20 03:32N 59°26' E 010°29'0 0.0
2015-Sep-20 02:32N 59°26' E 010°29'0 0.0
2015-Sep-20 01:32N 59°26' E 010°29'0 0.0
2015-Sep-20 00:32N 59°26' E 010°29'0 0.0
2015-Sep-19 23:29N 59°26' E 010°29'0 0.0
2015-Sep-19 22:32N 59°26' E 010°29'0 0.0
2015-Sep-19 21:32N 59°26' E 010°29'0 0.0
2015-Sep-19 20:32N 59°26' E 010°29'0 0.0
2015-Sep-19 19:32N 59°26' E 010°29'0 0.0
2015-Sep-19 18:32N 59°26' E 010°29'0 0.0
2015-Sep-19 17:32N 59°26' E 010°29'0 0.0
2015-Sep-19 16:32N 59°26' E 010°29'0 0.0
2015-Sep-19 15:34N 59°26' E 010°29'2 2.3
2015-Sep-19 14:34N 59°28' E 010°31'3 2.6
2015-Sep-19 13:34N 59°28' E 010°26'3 3.5
2015-Sep-19 12:34N 59°30' E 010°32'4 4.4
2015-Sep-19 11:33N 59°34' E 010°37'3 3.2
2015-Sep-19 10:33N 59°37' E 010°37'4 0.2
2015-Sep-18 17:34N 59°41' E 010°36'13 5.7
2015-Sep-18 15:20N 59°53' E 010°40'  

Dump ship's entire track history